Elizabeth, Colorado
Current Conditions -  °F | °C
As of 9:52 AM on Saturday 25 Oct 2014 (Local Time) from KMNH Reporting Station
Clear Clear  
Wind Chill: 64°   Ceiling: Unl
Heat Index: 64°   Visibility: 10mi
Dew Point: 19°   Wind: 7mph
Humidity: 18%   Direction: 40°NE
Pressure: 30.34"   Gusts: NA
Location:  39.36°N, 104.6°W
Report Text: KMNH 251552Z AUTO 04006KT 10SM CLR 18/M07 A3034 RMK AO2
Loading
Personal Weather Stations






























Interactive Weather Map
Tropical Storm Tracking
New forecast layout! Learn more

10-Day Weather Forecast

Advertisements
Track Severe Weather on mobile